Time;durP1;ratioP1;P1;durP2;ratioP2;P2;SDS_P1;SDS_P2;PMS_P1;PMS_P2;Temp;Humidity;BMP_temperature;BMP_pressure;BME280_temperature;BME280_humidity;BME280_pressure;Samples;Min_cycle;Max_cycle;Signal;HPM_P1;HPM_P2
2022/10/06 00:00:10;;;;;;;1.55;1.20;;;;;;;;;;2080021;28;20502;-80
2022/10/06 00:01:29;;;;;;;1.52;0.98;;;;;;;;;;2077528;28;20037;-80
2022/10/06 00:02:48;;;;;;;1.08;1.08;;;;;;;;;;2084803;28;20037;-80
2022/10/06 00:04:07;;;;;;;4.82;1.08;;;;;;;;;;2089600;28;20025;-80
2022/10/06 00:05:26;;;;;;;3.20;1.05;;;;;;;;;;2086827;28;20119;-80
2022/10/06 00:06:45;;;;;;;1.13;1.00;;;;;;;;;;2086344;28;20108;-79
2022/10/06 00:08:04;;;;;;;2.35;1.42;;;;;;;;;;2090094;28;20033;-78
2022/10/06 00:09:23;;;;;;;1.60;0.90;;;;;;;;;;2088557;28;20032;-80
2022/10/06 00:10:42;;;;;;;1.48;0.82;;;;;;;;;;2089545;28;20056;-79
2022/10/06 00:12:01;;;;;;;1.30;1.08;;;;;;;;;;2088868;28;20029;-79
2022/10/06 00:13:20;;;;;;;2.45;1.27;;;;;;;;;;2090634;28;20103;-80
2022/10/06 00:14:39;;;;;;;1.10;0.90;;;;;;;;;;2087582;28;20151;-81
2022/10/06 00:15:58;;;;;;;1.70;0.93;;;;;;;;;;2089334;28;20025;-83
2022/10/06 00:17:17;;;;;;;2.47;1.20;;;;;;;;;;2088240;28;20029;-82
2022/10/06 00:18:37;;;;;;;1.10;1.08;;;;;;;;;;2088846;28;20037;-82
2022/10/06 00:19:56;;;;;;;1.10;1.00;;;;;;;;;;2089197;28;20117;-81
2022/10/06 00:21:15;;;;;;;1.08;0.98;;;;;;;;;;2088988;28;20041;-82
2022/10/06 00:22:38;;;;;;;1.15;1.10;;;;;;;;;;2079741;28;20454;-80
2022/10/06 00:23:57;;;;;;;1.52;1.10;;;;;;;;;;2087198;28;20029;-82
2022/10/06 00:25:18;;;;;;;2.10;1.08;;;;;;;;;;2088935;28;20037;-81
2022/10/06 00:26:37;;;;;;;2.15;0.90;;;;;;;;;;2088449;28;20037;-81
2022/10/06 00:27:56;;;;;;;1.35;0.88;;;;;;;;;;2081226;28;20033;-81
2022/10/06 00:29:15;;;;;;;2.40;1.20;;;;;;;;;;2077053;28;20499;-81
2022/10/06 00:30:33;;;;;;;1.05;1.05;;;;;;;;;;2077160;28;20025;-82
2022/10/06 00:31:52;;;;;;;5.45;1.13;;;;;;;;;;2085241;28;20029;-81
2022/10/06 00:33:15;;;;;;;0.95;0.93;;;;;;;;;;2080322;28;20050;-82
2022/10/06 00:34:35;;;;;;;4.10;1.42;;;;;;;;;;2086823;28;20116;-83
2022/10/06 00:35:57;;;;;;;2.35;0.98;;;;;;;;;;2080561;28;20510;-82
2022/10/06 00:37:16;;;;;;;2.83;0.98;;;;;;;;;;2085549;28;20028;-81
2022/10/06 00:38:35;;;;;;;1.75;1.30;;;;;;;;;;2088376;28;20029;-81
2022/10/06 00:39:54;;;;;;;2.38;1.00;;;;;;;;;;2087871;28;20131;-80
2022/10/06 00:41:14;;;;;;;1.10;1.02;;;;;;;;;;2090367;28;20033;-81
2022/10/06 00:42:46;;;;;;;1.73;1.23;;;;;;;;;;2088057;28;20028;-80
2022/10/06 00:44:08;;;;;;;2.15;1.25;;;;;;;;;;2088056;28;20049;-80
2022/10/06 00:45:41;;;;;;;3.55;0.88;;;;;;;;;;2087452;28;20108;-81
2022/10/06 00:47:01;;;;;;;;;;;;;;;;;;2086618;28;20025;-80
2022/10/06 00:48:22;;;;;;;0.88;0.88;;;;;;;;;;2078930;28;19926;-80
2022/10/06 00:49:42;;;;;;;8.50;1.70;;;;;;;;;;2087021;28;20359;-80
2022/10/06 00:51:02;;;;;;;1.27;1.17;;;;;;;;;;2089691;28;20025;-81
2022/10/06 00:52:24;;;;;;;4.35;1.00;;;;;;;;;;2080442;28;20030;-80
2022/10/06 00:53:43;;;;;;;3.47;1.05;;;;;;;;;;2084613;28;20160;-81
2022/10/06 00:55:03;;;;;;;2.28;0.85;;;;;;;;;;2080202;28;20029;-81
2022/10/06 00:56:25;;;;;;;2.03;1.15;;;;;;;;;;2077509;28;20033;-81
2022/10/06 00:57:45;;;;;;;2.88;1.00;;;;;;;;;;2084341;28;20486;-80
2022/10/06 00:59:05;;;;;;;4.60;1.20;;;;;;;;;;2089708;28;20096;-81
2022/10/06 01:00:24;;;;;;;2.55;1.10;;;;;;;;;;2089161;28;20025;-80
2022/10/06 01:01:48;;;;;;;1.00;0.80;;;;;;;;;;2089759;28;20029;-80
2022/10/06 01:03:20;;;;;;;3.88;1.40;;;;;;;;;;2086262;28;20386;-80
2022/10/06 01:04:41;;;;;;;1.10;0.98;;;;;;;;;;2089433;28;20028;-80
2022/10/06 01:06:01;;;;;;;2.33;1.20;;;;;;;;;;2086271;28;20025;-80
2022/10/06 01:07:20;;;;;;;2.75;1.20;;;;;;;;;;2079936;28;20065;-80
2022/10/06 01:08:39;;;;;;;1.13;1.02;;;;;;;;;;2086138;28;20033;-80
2022/10/06 01:09:58;;;;;;;1.10;1.00;;;;;;;;;;2087898;28;20409;-80
2022/10/06 01:11:17;;;;;;;1.48;1.20;;;;;;;;;;2079515;28;20048;-80
2022/10/06 01:12:36;;;;;;;1.02;1.02;;;;;;;;;;2077042;28;20033;-80
2022/10/06 01:13:55;;;;;;;4.63;1.17;;;;;;;;;;2084495;28;20037;-79
2022/10/06 01:15:14;;;;;;;1.20;1.10;;;;;;;;;;2088837;28;20525;-81
2022/10/06 01:16:36;;;;;;;2.90;1.05;;;;;;;;;;2088894;28;20025;-81
2022/10/06 01:18:12;;;;;;;2.83;1.27;;;;;;;;;;2087707;28;20029;-80
2022/10/06 01:19:48;;;;;;;1.35;1.10;;;;;;;;;;2088645;28;20112;-80
2022/10/06 01:21:07;;;;;;;1.60;1.20;;;;;;;;;;2080214;28;20021;-80
2022/10/06 01:22:34;;;;;;;1.38;1.00;;;;;;;;;;2085814;28;20481;-80
2022/10/06 01:23:53;;;;;;;1.45;1.30;;;;;;;;;;2088531;28;20033;-80
2022/10/06 01:25:14;;;;;;;2.75;1.17;;;;;;;;;;2087374;28;20037;-79
2022/10/06 01:26:33;;;;;;;3.08;1.17;;;;;;;;;;2080196;28;20030;-80
2022/10/06 01:27:53;;;;;;;1.85;1.20;;;;;;;;;;2085687;28;20033;-78
2022/10/06 01:29:12;;;;;;;2.67;1.27;;;;;;;;;;2089254;28;20037;-81
2022/10/06 01:30:35;;;;;;;2.08;1.20;;;;;;;;;;2087044;28;20037;-80
2022/10/06 01:31:54;;;;;;;3.57;1.13;;;;;;;;;;2088541;28;20021;-79
2022/10/06 01:33:12;;;;;;;2.33;1.30;;;;;;;;;;2089432;28;20750;-80
2022/10/06 01:34:31;;;;;;;2.85;1.10;;;;;;;;;;2088635;28;20041;-80
2022/10/06 01:35:51;;;;;;;1.55;1.13;;;;;;;;;;2089111;28;20495;-80
2022/10/06 01:37:10;;;;;;;1.42;1.17;;;;;;;;;;2087918;28;20571;-80
2022/10/06 01:38:29;;;;;;;4.40;1.40;;;;;;;;;;2087951;28;20045;-80
2022/10/06 01:39:48;;;;;;;1.67;1.35;;;;;;;;;;2088379;28;20033;-80
2022/10/06 01:41:07;;;;;;;1.38;1.25;;;;;;;;;;2087887;28;20025;-80
2022/10/06 01:42:30;;;;;;;1.63;1.10;;;;;;;;;;2088516;28;20021;-79
2022/10/06 01:43:49;;;;;;;2.28;1.33;;;;;;;;;;2087425;28;20402;-80
2022/10/06 01:45:08;;;;;;;1.30;1.20;;;;;;;;;;2086717;28;20103;-79
2022/10/06 01:46:28;;;;;;;1.58;1.42;;;;;;;;;;2079072;28;20029;-79
2022/10/06 01:47:47;;;;;;;1.42;1.10;;;;;;;;;;2084935;28;20065;-79
2022/10/06 01:49:06;;;;;;;4.00;1.60;;;;;;;;;;2077925;28;20029;-80
2022/10/06 01:50:25;;;;;;;2.25;1.30;;;;;;;;;;2076827;28;20144;-79
2022/10/06 01:51:45;;;;;;;1.92;1.55;;;;;;;;;;2086168;28;20025;-79
2022/10/06 01:53:04;;;;;;;3.50;2.00;;;;;;;;;;2089091;28;20041;-79
2022/10/06 01:54:23;;;;;;;1.55;1.10;;;;;;;;;;2087913;28;20036;-79
2022/10/06 01:55:42;;;;;;;2.95;1.45;;;;;;;;;;2087122;28;20021;-80
2022/10/06 01:57:03;;;;;;;5.47;1.40;;;;;;;;;;2079367;28;20045;-77
2022/10/06 01:58:23;;;;;;;3.63;1.40;;;;;;;;;;2086662;28;20024;-79
2022/10/06 01:59:42;;;;;;;2.25;1.20;;;;;;;;;;2088324;28;20037;-79
2022/10/06 02:01:05;;;;;;;1.90;1.40;;;;;;;;;;2080084;28;20014;-79
2022/10/06 02:02:24;;;;;;;1.65;1.50;;;;;;;;;;2076668;28;20058;-79
2022/10/06 02:03:43;;;;;;;2.78;1.40;;;;;;;;;;2084789;28;20397;-79
2022/10/06 02:05:02;;;;;;;2.92;1.50;;;;;;;;;;2086882;28;20033;-79
2022/10/06 02:06:21;;;;;;;3.47;1.60;;;;;;;;;;2088519;28;20025;-80
2022/10/06 02:07:40;;;;;;;3.05;1.38;;;;;;;;;;2088142;28;20033;-79
2022/10/06 02:08:59;;;;;;;6.22;1.60;;;;;;;;;;2086737;28;20112;-79
2022/10/06 02:10:18;;;;;;;1.95;1.58;;;;;;;;;;2089480;28;20489;-79
2022/10/06 02:11:37;;;;;;;3.05;1.63;;;;;;;;;;2089084;28;20518;-78
2022/10/06 02:12:56;;;;;;;3.38;1.58;;;;;;;;;;2087049;28;20466;-79
2022/10/06 02:14:16;;;;;;;2.30;1.42;;;;;;;;;;2084320;28;20045;-79
2022/10/06 02:15:35;;;;;;;2.17;1.80;;;;;;;;;;2086972;28;20052;-80
2022/10/06 02:16:55;;;;;;;2.85;1.52;;;;;;;;;;2087853;28;20029;-79
2022/10/06 02:18:14;;;;;;;6.80;2.00;;;;;;;;;;2088495;28;20025;-80
2022/10/06 02:19:33;;;;;;;2.10;1.60;;;;;;;;;;2087043;28;20033;-80
2022/10/06 02:20:52;;;;;;;4.32;1.65;;;;;;;;;;2088372;28;20025;-79
2022/10/06 02:22:11;;;;;;;5.05;1.60;;;;;;;;;;2080400;28;20037;-79
2022/10/06 02:23:30;;;;;;;2.88;1.85;;;;;;;;;;2076429;28;20070;-80
2022/10/06 02:24:49;;;;;;;2.10;1.90;;;;;;;;;;2083324;28;20100;-80
2022/10/06 02:26:09;;;;;;;5.20;1.70;;;;;;;;;;2088297;28;20078;-79
2022/10/06 02:27:28;;;;;;;2.50;1.63;;;;;;;;;;2079238;28;20030;-80
2022/10/06 02:28:48;;;;;;;2.35;1.75;;;;;;;;;;2083635;28;20037;-80
2022/10/06 02:30:07;;;;;;;4.72;1.55;;;;;;;;;;2087518;28;20041;-80
2022/10/06 02:31:27;;;;;;;7.05;2.33;;;;;;;;;;2087816;28;20025;-80
2022/10/06 02:32:46;;;;;;;3.55;1.65;;;;;;;;;;2088341;28;20418;-80
2022/10/06 02:34:04;;;;;;;3.15;2.13;;;;;;;;;;2088510;28;20033;-80
2022/10/06 02:35:23;;;;;;;3.15;1.98;;;;;;;;;;2088259;28;20029;-80
2022/10/06 02:36:42;;;;;;;2.88;1.90;;;;;;;;;;2088769;28;20060;-80
2022/10/06 02:38:01;;;;;;;4.97;2.03;;;;;;;;;;2087529;28;20025;-80
2022/10/06 02:39:20;;;;;;;2.80;1.83;;;;;;;;;;2086217;28;20501;-79
2022/10/06 02:40:39;;;;;;;3.08;1.63;;;;;;;;;;2078078;28;20093;-80
2022/10/06 02:41:57;;;;;;;2.40;1.83;;;;;;;;;;2084920;28;20025;-80
2022/10/06 02:43:17;;;;;;;1.90;1.70;;;;;;;;;;2079363;28;20406;-79
2022/10/06 02:44:36;;;;;;;5.15;1.90;;;;;;;;;;2074598;28;20093;-80
2022/10/06 02:45:55;;;;;;;3.78;1.85;;;;;;;;;;2075367;28;20033;-80
2022/10/06 02:47:14;;;;;;;2.38;1.85;;;;;;;;;;2085534;28;20021;-80
2022/10/06 02:48:34;;;;;;;4.53;1.90;;;;;;;;;;2087526;28;20033;-79
2022/10/06 02:49:52;;;;;;;3.17;2.08;;;;;;;;;;2087478;28;20042;-79
2022/10/06 02:51:14;;;;;;;4.45;2.10;;;;;;;;;;2079459;28;20033;-80
2022/10/06 02:52:34;;;;;;;4.78;2.10;;;;;;;;;;2076633;28;20040;-79
2022/10/06 02:53:53;;;;;;;3.85;2.22;;;;;;;;;;2085369;28;20032;-80
2022/10/06 02:55:12;;;;;;;2.78;2.30;;;;;;;;;;2083939;28;20037;-80
2022/10/06 02:56:31;;;;;;;2.15;1.95;;;;;;;;;;2087818;28;20546;-79
2022/10/06 02:57:50;;;;;;;2.50;1.77;;;;;;;;;;2079883;28;20124;-79
2022/10/06 02:59:08;;;;;;;2.50;1.80;;;;;;;;;;2084000;28;20489;-80
2022/10/06 03:00:27;;;;;;;4.18;2.20;;;;;;;;;;2086839;28;20029;-80
2022/10/06 03:01:46;;;;;;;2.03;1.90;;;;;;;;;;2088456;28;20033;-80
2022/10/06 03:03:05;;;;;;;4.15;2.55;;;;;;;;;;2088204;28;20033;-81
2022/10/06 03:04:24;;;;;;;4.00;1.88;;;;;;;;;;2087971;28;20025;-80
2022/10/06 03:05:43;;;;;;;2.45;1.70;;;;;;;;;;2087687;28;20493;-80
2022/10/06 03:07:02;;;;;;;5.30;2.45;;;;;;;;;;2079122;28;20497;-80
2022/10/06 03:08:21;;;;;;;4.20;2.00;;;;;;;;;;2083097;28;20972;-80
2022/10/06 03:09:40;;;;;;;2.28;1.80;;;;;;;;;;2086796;28;20134;-79
2022/10/06 03:11:03;;;;;;;3.53;2.20;;;;;;;;;;2087885;28;20033;-80
2022/10/06 03:12:22;;;;;;;4.07;1.77;;;;;;;;;;2078793;28;20695;-80
2022/10/06 03:13:41;;;;;;;5.78;2.28;;;;;;;;;;2074494;28;20068;-80
2022/10/06 03:15:00;;;;;;;7.00;2.05;;;;;;;;;;2083514;28;20435;-81
2022/10/06 03:16:20;;;;;;;3.80;1.88;;;;;;;;;;2080061;28;20026;-80
2022/10/06 03:17:39;;;;;;;5.40;2.25;;;;;;;;;;2085094;28;20037;-80
2022/10/06 03:18:59;;;;;;;5.30;1.95;;;;;;;;;;2088244;28;20029;-80
2022/10/06 03:20:17;;;;;;;2.95;2.00;;;;;;;;;;2078492;28;20387;-80
2022/10/06 03:21:38;;;;;;;3.70;1.70;;;;;;;;;;2073508;28;20652;-80
2022/10/06 03:22:57;;;;;;;6.15;2.45;;;;;;;;;;2085244;28;20033;-80
2022/10/06 03:24:16;;;;;;;5.85;2.58;;;;;;;;;;2088456;28;20104;-80
2022/10/06 03:25:35;;;;;;;3.42;2.00;;;;;;;;;;2088017;28;20497;-80
2022/10/06 03:26:54;;;;;;;5.47;2.50;;;;;;;;;;2086868;28;20044;-80
2022/10/06 03:28:14;;;;;;;3.67;2.03;;;;;;;;;;2087284;28;20037;-80
2022/10/06 03:29:33;;;;;;;8.43;2.10;;;;;;;;;;2088990;28;20393;-80
2022/10/06 03:30:53;;;;;;;4.25;2.20;;;;;;;;;;2088178;28;20032;-80
2022/10/06 03:32:12;;;;;;;2.30;2.10;;;;;;;;;;2087736;28;20033;-80
2022/10/06 03:33:32;;;;;;;3.28;2.15;;;;;;;;;;2079029;28;20511;-80
2022/10/06 03:34:52;;;;;;;3.80;2.08;;;;;;;;;;2083256;28;20033;-80
2022/10/06 03:36:12;;;;;;;2.42;2.08;;;;;;;;;;2079573;28;20029;-80
2022/10/06 03:37:31;;;;;;;3.40;2.30;;;;;;;;;;2085517;28;20506;-80
2022/10/06 03:38:51;;;;;;;2.20;2.00;;;;;;;;;;2087849;28;20029;-80
2022/10/06 03:40:10;;;;;;;4.82;2.33;;;;;;;;;;2086953;28;20025;-80
2022/10/06 03:41:30;;;;;;;3.05;1.90;;;;;;;;;;2088907;28;20036;-78
2022/10/06 03:42:49;;;;;;;3.38;2.10;;;;;;;;;;2087730;28;20022;-80
2022/10/06 03:44:08;;;;;;;3.40;2.65;;;;;;;;;;2086734;28;20548;-81
2022/10/06 03:45:27;;;;;;;3.40;1.92;;;;;;;;;;2078588;28;20053;-80
2022/10/06 03:46:45;;;;;;;4.57;2.53;;;;;;;;;;2083875;28;20119;-80
2022/10/06 03:48:04;;;;;;;2.63;2.28;;;;;;;;;;2080148;28;20041;-79
2022/10/06 03:49:23;;;;;;;2.38;2.10;;;;;;;;;;2083980;28;20096;-80
2022/10/06 03:50:44;;;;;;;2.35;2.15;;;;;;;;;;2087259;28;20577;-80
2022/10/06 03:52:03;;;;;;;4.60;2.40;;;;;;;;;;2087625;28;20025;-80
2022/10/06 03:53:26;;;;;;;3.42;2.00;;;;;;;;;;2080248;28;20025;-80
2022/10/06 03:54:45;;;;;;;3.50;2.03;;;;;;;;;;2085042;28;20116;-80
2022/10/06 03:56:07;;;;;;;3.78;2.30;;;;;;;;;;2086842;28;20100;-79
2022/10/06 03:57:25;;;;;;;3.85;2.13;;;;;;;;;;2087412;28;20067;-80
2022/10/06 03:58:49;;;;;;;3.85;2.05;;;;;;;;;;2078083;28;20029;-80
2022/10/06 04:00:08;;;;;;;3.28;2.20;;;;;;;;;;2084881;28;20021;-79
2022/10/06 04:01:32;;;;;;;4.22;2.17;;;;;;;;;;2087899;28;20029;-80
2022/10/06 04:02:51;;;;;;;6.25;2.13;;;;;;;;;;2084799;28;20108;-80
2022/10/06 04:04:10;;;;;;;4.10;2.10;;;;;;;;;;2087805;28;20033;-80
2022/10/06 04:05:29;;;;;;;4.40;2.42;;;;;;;;;;2078758;28;20038;-80
2022/10/06 04:06:48;;;;;;;2.45;2.33;;;;;;;;;;2084347;28;20037;-78
2022/10/06 04:08:07;;;;;;;2.38;2.17;;;;;;;;;;2087726;28;20499;-80
2022/10/06 04:09:26;;;;;;;4.22;2.42;;;;;;;;;;2087262;28;20440;-80
2022/10/06 04:10:44;;;;;;;2.65;2.30;;;;;;;;;;2087237;28;20064;-79
2022/10/06 04:12:03;;;;;;;4.78;2.65;;;;;;;;;;2089010;28;20041;-80
2022/10/06 04:13:22;;;;;;;2.92;2.72;;;;;;;;;;2087121;28;20028;-80
2022/10/06 04:14:41;;;;;;;5.93;2.78;;;;;;;;;;2087033;28;20490;-80
2022/10/06 04:16:10;;;;;;;4.13;3.10;;;;;;;;;;2087167;28;20025;-80
2022/10/06 04:17:29;;;;;;;2.92;2.60;;;;;;;;;;2087451;28;20025;-80
2022/10/06 04:18:49;;;;;;;3.17;2.88;;;;;;;;;;2087626;28;20026;-81
2022/10/06 04:20:08;;;;;;;3.33;3.08;;;;;;;;;;2087746;28;20108;-80
2022/10/06 04:21:28;;;;;;;5.65;3.38;;;;;;;;;;2078232;28;20522;-80
2022/10/06 04:22:47;;;;;;;4.70;3.20;;;;;;;;;;2085327;28;20382;-79
2022/10/06 04:24:07;;;;;;;6.22;3.65;;;;;;;;;;2090386;28;20397;-79
2022/10/06 04:25:26;;;;;;;4.90;3.60;;;;;;;;;;2087832;28;20032;-80
2022/10/06 04:26:45;;;;;;;4.03;3.53;;;;;;;;;;2078588;28;20030;-81
2022/10/06 04:28:04;;;;;;;6.53;4.15;;;;;;;;;;2076274;28;20029;-82
2022/10/06 04:29:23;;;;;;;7.15;4.22;;;;;;;;;;2087900;28;20025;-82
2022/10/06 04:30:42;;;;;;;7.45;4.38;;;;;;;;;;2089709;28;20033;-83
2022/10/06 04:32:01;;;;;;;6.38;4.30;;;;;;;;;;2080103;28;20495;-82
2022/10/06 04:33:21;;;;;;;8.45;4.72;;;;;;;;;;2077761;28;20155;-83
2022/10/06 04:34:39;;;;;;;5.03;4.55;;;;;;;;;;2084168;28;20072;-78
2022/10/06 04:36:03;;;;;;;4.80;4.50;;;;;;;;;;2088384;28;20029;-79
2022/10/06 04:37:22;;;;;;;4.55;4.15;;;;;;;;;;2077763;28;20037;-83
2022/10/06 04:38:41;;;;;;;3.72;3.53;;;;;;;;;;2083639;28;20029;-82
2022/10/06 04:40:00;;;;;;;3.85;3.35;;;;;;;;;;2087789;28;20060;-80
2022/10/06 04:41:19;;;;;;;4.15;2.95;;;;;;;;;;2080766;28;20037;-81
2022/10/06 04:42:39;;;;;;;4.63;2.72;;;;;;;;;;2078068;28;20029;-83
2022/10/06 04:43:58;;;;;;;2.20;2.10;;;;;;;;;;2086122;28;20041;-84
2022/10/06 04:45:17;;;;;;;2.90;2.70;;;;;;;;;;2088900;28;20032;-83
2022/10/06 04:46:36;;;;;;;2.50;1.92;;;;;;;;;;2086977;28;20506;-83
2022/10/06 04:47:55;;;;;;;3.75;2.00;;;;;;;;;;2091075;28;20041;-82
2022/10/06 04:49:14;;;;;;;1.70;1.60;;;;;;;;;;2091137;28;20033;-83
2022/10/06 04:50:33;;;;;;;1.80;1.70;;;;;;;;;;2088203;28;20100;-82
2022/10/06 04:51:52;;;;;;;1.10;1.10;;;;;;;;;;2080668;28;20045;-85
2022/10/06 04:53:11;;;;;;;1.50;1.20;;;;;;;;;;2079465;28;20029;-85
2022/10/06 04:54:29;;;;;;;1.42;1.05;;;;;;;;;;2087277;28;20049;-86
2022/10/06 04:55:59;;;;;;;1.45;1.35;;;;;;;;;;2087789;28;20029;-83
2022/10/06 04:57:18;;;;;;;1.90;1.05;;;;;;;;;;2086207;28;20029;-84
2022/10/06 04:58:38;;;;;;;1.25;0.80;;;;;;;;;;2084214;28;20104;-82
2022/10/06 05:01:36;;;;;;;1.65;0.80;;;;;;;;;;2090218;28;20482;-83
2022/10/06 05:02:55;;;;;;;1.38;0.80;;;;;;;;;;2089524;28;20033;-82
2022/10/06 05:04:14;;;;;;;1.60;0.63;;;;;;;;;;2089565;28;20033;-83
2022/10/06 05:05:33;;;;;;;1.25;0.40;;;;;;;;;;2089853;28;20394;-83
2022/10/06 05:06:52;;;;;;;3.67;1.13;;;;;;;;;;2089648;28;20401;-81
2022/10/06 05:08:11;;;;;;;0.50;0.47;;;;;;;;;;2089655;28;20474;-82
2022/10/06 05:09:30;;;;;;;9.20;1.08;;;;;;;;;;2088153;28;20041;-83
2022/10/06 05:10:49;;;;;;;2.65;0.70;;;;;;;;;;2079019;28;20033;-82
2022/10/06 05:12:09;;;;;;;0.88;0.45;;;;;;;;;;2076782;28;20030;-78
2022/10/06 05:13:28;;;;;;;1.10;0.80;;;;;;;;;;2085089;28;20033;-83
2022/10/06 05:14:47;;;;;;;2.17;0.80;;;;;;;;;;2087510;28;20084;-83
2022/10/06 05:16:07;;;;;;;0.95;0.40;;;;;;;;;;2080417;28;20025;-82
2022/10/06 05:17:27;;;;;;;0.63;0.52;;;;;;;;;;2084519;28;20033;-83
2022/10/06 05:18:46;;;;;;;2.10;0.50;;;;;;;;;;2089959;28;20072;-83
2022/10/06 05:20:05;;;;;;;1.13;0.60;;;;;;;;;;2088158;28;20029;-82
2022/10/06 05:21:26;;;;;;;0.82;0.40;;;;;;;;;;2088500;28;20033;-81
2022/10/06 05:22:44;;;;;;;1.27;0.55;;;;;;;;;;2089013;28;20486;-83
2022/10/06 05:24:04;;;;;;;2.50;0.47;;;;;;;;;;2090075;28;20032;-83
2022/10/06 05:25:23;;;;;;;1.60;0.50;;;;;;;;;;2088987;28;20032;-82
2022/10/06 05:26:42;;;;;;;0.65;0.32;;;;;;;;;;2079854;28;20087;-82
2022/10/06 05:28:01;;;;;;;0.55;0.22;;;;;;;;;;2084350;28;20045;-81
2022/10/06 05:29:20;;;;;;;0.80;0.30;;;;;;;;;;2089277;28;20045;-81
2022/10/06 05:30:39;;;;;;;2.88;0.68;;;;;;;;;;2077599;28;20034;-81
2022/10/06 05:31:58;;;;;;;1.75;0.40;;;;;;;;;;2077273;28;20042;-83
2022/10/06 05:33:16;;;;;;;1.38;0.40;;;;;;;;;;2083553;28;20037;-81
2022/10/06 05:34:35;;;;;;;1.85;0.40;;;;;;;;;;2085626;28;20159;-83
2022/10/06 05:35:56;;;;;;;2.67;0.30;;;;;;;;;;2089878;28;20029;-81
2022/10/06 05:37:15;;;;;;;1.33;0.30;;;;;;;;;;2085952;28;20470;-84
2022/10/06 05:38:34;;;;;;;3.08;0.28;;;;;;;;;;2085243;28;20120;-82
2022/10/06 05:39:53;;;;;;;2.53;0.60;;;;;;;;;;2087570;28;20056;-82
2022/10/06 05:41:14;;;;;;;0.68;0.45;;;;;;;;;;2089209;28;20445;-83
2022/10/06 05:42:33;;;;;;;0.60;0.35;;;;;;;;;;2074425;28;20506;-83
2022/10/06 05:43:52;;;;;;;1.83;0.55;;;;;;;;;;2083904;28;20029;-83
2022/10/06 05:45:11;;;;;;;3.30;0.30;;;;;;;;;;2079593;28;20042;-81
2022/10/06 05:46:30;;;;;;;0.80;0.30;;;;;;;;;;2080848;28;20512;-85
2022/10/06 05:47:49;;;;;;;2.25;0.40;;;;;;;;;;2084969;28;20040;-84
2022/10/06 05:49:09;;;;;;;1.98;0.50;;;;;;;;;;2081336;28;20053;-83
2022/10/06 05:50:28;;;;;;;0.77;0.45;;;;;;;;;;2085292;28;20021;-85
2022/10/06 05:51:47;;;;;;;1.38;0.30;;;;;;;;;;2088753;28;20033;-85
2022/10/06 05:53:06;;;;;;;0.77;0.20;;;;;;;;;;2088287;28;20025;-85
2022/10/06 05:54:25;;;;;;;1.95;0.55;;;;;;;;;;2088944;28;20033;-82
2022/10/06 05:55:44;;;;;;;1.17;0.35;;;;;;;;;;2079435;28;20100;-86
2022/10/06 05:57:03;;;;;;;0.65;0.30;;;;;;;;;;2082230;28;20033;-82
2022/10/06 05:58:22;;;;;;;0.47;0.40;;;;;;;;;;2089771;28;20026;-82
2022/10/06 05:59:42;;;;;;;0.80;0.40;;;;;;;;;;2089208;28;20029;-84
2022/10/06 06:01:05;;;;;;;2.17;0.52;;;;;;;;;;2090482;28;20432;-81
2022/10/06 06:02:24;;;;;;;;;;;;;;;;;;2083080;28;20025;-84
2022/10/06 06:03:46;;;;;;;1.70;0.40;;;;;;;;;;2078165;28;19944;-81
2022/10/06 06:05:05;;;;;;;3.47;0.50;;;;;;;;;;2086454;28;20025;-82
2022/10/06 06:06:24;;;;;;;1.63;0.40;;;;;;;;;;2081052;28;20239;-83
2022/10/06 06:07:43;;;;;;;1.80;0.40;;;;;;;;;;2076689;28;20025;-82
2022/10/06 06:09:13;;;;;;;2.50;0.70;;;;;;;;;;2076474;28;20037;-82
2022/10/06 06:10:31;;;;;;;0.95;0.40;;;;;;;;;;2086315;28;20025;-83
2022/10/06 06:11:53;;;;;;;2.60;0.65;;;;;;;;;;2088883;28;20029;-83
2022/10/06 06:13:18;;;;;;;1.35;0.60;;;;;;;;;;2088114;28;20116;-86
2022/10/06 06:16:14;;;;;;;1.27;0.40;;;;;;;;;;2085527;28;20033;-85
2022/10/06 06:17:33;;;;;;;1.67;0.85;;;;;;;;;;2086597;28;20021;-83
2022/10/06 06:18:52;;;;;;;2.10;0.30;;;;;;;;;;2087577;28;20112;-84
2022/10/06 06:20:11;;;;;;;0.98;0.40;;;;;;;;;;2088582;28;20022;-85
2022/10/06 06:21:30;;;;;;;1.05;0.20;;;;;;;;;;2080078;28;20519;-83
2022/10/06 06:22:52;;;;;;;0.93;0.45;;;;;;;;;;2084944;28;20029;-84
2022/10/06 06:24:11;;;;;;;4.13;0.60;;;;;;;;;;2079768;28;20045;-84
2022/10/06 06:25:30;;;;;;;0.82;0.35;;;;;;;;;;2080444;28;20061;-85
2022/10/06 06:26:49;;;;;;;3.28;0.60;;;;;;;;;;2084444;28;20037;-81
2022/10/06 06:28:08;;;;;;;6.90;0.43;;;;;;;;;;2079431;28;20030;-82
2022/10/06 06:29:27;;;;;;;2.38;0.30;;;;;;;;;;2085198;28;20025;-83
2022/10/06 06:30:46;;;;;;;2.30;0.40;;;;;;;;;;2089069;28;20482;-83
2022/10/06 06:32:07;;;;;;;3.35;0.55;;;;;;;;;;2077905;28;20042;-84
2022/10/06 06:33:25;;;;;;;1.05;0.40;;;;;;;;;;2075148;28;20068;-84
2022/10/06 06:34:44;;;;;;;0.90;0.50;;;;;;;;;;2076292;28;20041;-84
2022/10/06 06:36:12;;;;;;;2.90;0.35;;;;;;;;;;2084821;28;20474;-85
2022/10/06 06:37:32;;;;;;;2.85;0.45;;;;;;;;;;2088813;28;20081;-86
2022/10/06 06:38:52;;;;;;;0.90;0.60;;;;;;;;;;2078465;28;20462;-84
2022/10/06 06:40:11;;;;;;;2.78;1.05;;;;;;;;;;2075749;28;20033;-84
2022/10/06 06:41:32;;;;;;;2.42;0.40;;;;;;;;;;2083616;28;20545;-81
2022/10/06 06:42:51;;;;;;;1.92;0.60;;;;;;;;;;2087011;28;20104;-84
2022/10/06 06:44:10;;;;;;;0.95;0.43;;;;;;;;;;2087239;28;20417;-84
2022/10/06 06:45:29;;;;;;;4.57;0.50;;;;;;;;;;2078658;28;20482;-83
2022/10/06 06:46:49;;;;;;;3.70;1.33;;;;;;;;;;2081365;28;20496;-82
2022/10/06 06:48:12;;;;;;;4.20;0.40;;;;;;;;;;2085582;28;20037;-81
2022/10/06 06:49:31;;;;;;;5.28;0.68;;;;;;;;;;2080312;28;20115;-83
2022/10/06 06:50:59;;;;;;;1.52;0.65;;;;;;;;;;2084729;28;20029;-83
2022/10/06 06:52:19;;;;;;;1.27;0.50;;;;;;;;;;2087125;28;20025;-84
2022/10/06 06:53:39;;;;;;;2.80;0.47;;;;;;;;;;2086313;28;20395;-83
2022/10/06 06:54:58;;;;;;;2.35;0.98;;;;;;;;;;2086869;28;20029;-83
2022/10/06 06:56:16;;;;;;;2.78;0.60;;;;;;;;;;2088818;28;20032;-84
2022/10/06 06:57:35;;;;;;;1.55;0.50;;;;;;;;;;2077757;28;20025;-84
2022/10/06 06:58:54;;;;;;;0.90;0.40;;;;;;;;;;2075186;28;20096;-84
2022/10/06 07:00:13;;;;;;;1.33;0.50;;;;;;;;;;2073333;28;20184;-85
2022/10/06 07:01:31;;;;;;;5.45;0.57;;;;;;;;;;2084783;28;20518;-83
2022/10/06 07:02:57;;;;;;;5.05;0.50;;;;;;;;;;2087565;28;20033;-80
2022/10/06 07:04:17;;;;;;;1.35;0.60;;;;;;;;;;2087421;28;20037;-80
2022/10/06 07:05:36;;;;;;;2.33;0.70;;;;;;;;;;2079014;28;20498;-80
2022/10/06 07:06:57;;;;;;;1.90;0.50;;;;;;;;;;2084220;28;20494;-81
2022/10/06 07:08:19;;;;;;;5.72;0.43;;;;;;;;;;2088466;28;20033;-81
2022/10/06 07:09:38;;;;;;;2.80;0.52;;;;;;;;;;2086957;28;20583;-82
2022/10/06 07:10:57;;;;;;;3.10;0.50;;;;;;;;;;2086484;28;20711;-81
2022/10/06 07:12:16;;;;;;;2.00;0.40;;;;;;;;;;2084991;28;20482;-81
2022/10/06 07:13:35;;;;;;;1.92;0.73;;;;;;;;;;2087636;28;20037;-81
2022/10/06 07:26:22;;;;;;;1.65;0.75;;;;;;;;;;2087199;28;20025;-80
2022/10/06 07:27:45;;;;;;;5.20;0.90;;;;;;;;;;2078378;28;20037;-81
2022/10/06 07:29:04;;;;;;;2.05;0.43;;;;;;;;;;2084813;28;20025;-80
2022/10/06 07:30:25;;;;;;;2.08;0.80;;;;;;;;;;2088802;28;20033;-80
2022/10/06 07:31:44;;;;;;;6.13;1.15;;;;;;;;;;2087607;28;20033;-81
2022/10/06 07:33:07;;;;;;;3.35;0.47;;;;;;;;;;2086571;28;20037;-80
2022/10/06 07:34:27;;;;;;;;;;;;;;;;;;2076577;28;20097;-82
2022/10/06 07:35:46;;;;;;;1.70;0.40;;;;;;;;;;2075414;28;19921;-81
2022/10/06 07:37:05;;;;;;;2.67;0.52;;;;;;;;;;2085442;28;20382;-80
2022/10/06 07:38:24;;;;;;;1.27;0.40;;;;;;;;;;2079585;28;20116;-80
2022/10/06 07:39:43;;;;;;;2.35;0.55;;;;;;;;;;2074679;28;20037;-80
2022/10/06 07:41:02;;;;;;;1.55;0.60;;;;;;;;;;2075464;28;20034;-80
2022/10/06 07:42:21;;;;;;;0.77;0.40;;;;;;;;;;2083998;28;20029;-80
2022/10/06 07:43:40;;;;;;;1.73;0.50;;;;;;;;;;2076439;28;20133;-81
2022/10/06 07:46:36;;;;;;;3.35;0.50;;;;;;;;;;2070211;28;20042;-80
2022/10/06 07:47:59;;;;;;;2.40;0.65;;;;;;;;;;2070894;28;20030;-80
2022/10/06 07:49:18;;;;;;;6.03;1.10;;;;;;;;;;2069101;28;20079;-80
2022/10/06 07:50:38;;;;;;;8.60;0.50;;;;;;;;;;2068684;28;20043;-79
2022/10/06 07:51:57;;;;;;;3.10;0.63;;;;;;;;;;2071151;28;20069;-80
2022/10/06 07:53:17;;;;;;;4.90;0.90;;;;;;;;;;2071443;28;20105;-80
2022/10/06 07:54:36;;;;;;;1.52;0.50;;;;;;;;;;2069418;28;20030;-80
2022/10/06 07:56:01;;;;;;;2.20;0.80;;;;;;;;;;2071111;28;20479;-80
2022/10/06 07:57:20;;;;;;;2.88;0.90;;;;;;;;;;2068087;28;20038;-80
2022/10/06 07:58:39;;;;;;;7.63;0.85;;;;;;;;;;2070290;28;20061;-80
2022/10/06 07:59:58;;;;;;;5.07;0.95;;;;;;;;;;2070717;28;20038;-80
2022/10/06 08:01:19;;;;;;;1.50;0.60;;;;;;;;;;2072780;28;20108;-80
2022/10/06 08:02:38;;;;;;;3.42;1.05;;;;;;;;;;2072876;28;20113;-80
2022/10/06 08:03:57;;;;;;;4.50;1.05;;;;;;;;;;2072726;28;20126;-81
2022/10/06 08:05:16;;;;;;;2.03;0.57;;;;;;;;;;2068732;28;20038;-80
2022/10/06 08:06:35;;;;;;;2.97;0.75;;;;;;;;;;2071958;28;20344;-81
2022/10/06 08:07:57;;;;;;;6.53;1.20;;;;;;;;;;2073786;28;20027;-82
2022/10/06 08:09:15;;;;;;;4.05;0.50;;;;;;;;;;2070305;28;20022;-80
2022/10/06 08:10:35;;;;;;;2.75;1.00;;;;;;;;;;2071287;28;20034;-81
2022/10/06 08:11:54;;;;;;;6.65;0.70;;;;;;;;;;2072282;28;20116;-80
2022/10/06 08:13:13;;;;;;;2.10;0.57;;;;;;;;;;2074032;28;20049;-80
2022/10/06 08:14:32;;;;;;;5.32;0.90;;;;;;;;;;2073968;28;20030;-80